createdAt,value
2022-09-20T00:01:55.073Z,22.79
2022-09-20T00:04:21.432Z,22.79
2022-09-20T00:06:47.781Z,22.80
2022-09-20T00:09:14.148Z,22.80
2022-09-20T00:11:40.513Z,22.79
2022-09-20T00:14:06.877Z,22.76
2022-09-20T00:16:33.338Z,22.78
2022-09-20T00:18:59.777Z,22.75
2022-09-20T00:21:26.142Z,22.84
2022-09-20T00:23:52.515Z,22.83
2022-09-20T00:26:18.875Z,22.81
2022-09-20T00:28:45.240Z,22.82
2022-09-20T00:31:11.602Z,22.76
2022-09-20T00:33:37.959Z,22.78
2022-09-20T00:36:04.333Z,22.77
2022-09-20T00:38:30.680Z,22.79
2022-09-20T00:40:57.025Z,22.76
2022-09-20T00:43:23.390Z,22.73
2022-09-20T00:45:49.809Z,22.70
2022-09-20T00:48:16.205Z,22.72
2022-09-20T00:50:42.570Z,22.69
2022-09-20T00:53:08.919Z,22.74
2022-09-20T00:55:35.277Z,22.72
2022-09-20T00:58:01.643Z,22.72
2022-09-20T01:00:27.991Z,22.73
2022-09-20T01:02:54.361Z,22.75
2022-09-20T01:05:20.711Z,22.70
2022-09-20T01:07:47.167Z,22.68
2022-09-20T01:10:13.526Z,22.65
2022-09-20T01:12:39.881Z,22.69
2022-09-20T01:15:06.239Z,22.68
2022-09-20T01:17:32.596Z,22.66
2022-09-20T01:19:58.948Z,22.71
2022-09-20T01:22:25.314Z,22.68
2022-09-20T01:24:51.674Z,22.66
2022-09-20T01:27:18.023Z,22.69
2022-09-20T01:29:44.386Z,22.71
2022-09-20T01:32:10.845Z,22.70
2022-09-20T01:34:37.243Z,22.70
2022-09-20T01:37:03.624Z,22.68
2022-09-20T01:39:29.976Z,22.70
2022-09-20T01:41:56.323Z,22.70
2022-09-20T01:44:22.688Z,22.73
2022-09-20T01:46:49.040Z,22.68
2022-09-20T01:49:15.417Z,22.62
2022-09-20T01:51:41.785Z,22.66
2022-09-20T01:54:08.141Z,22.72
2022-09-20T01:56:34.500Z,22.67
2022-09-20T01:59:22.615Z,22.68
2022-09-20T02:01:47.196Z,22.69
2022-09-20T02:04:13.558Z,22.66
2022-09-20T02:06:39.907Z,22.70
2022-09-20T02:09:06.347Z,22.71
2022-09-20T02:11:32.711Z,22.66
2022-09-20T02:13:59.075Z,22.66
2022-09-20T02:16:25.456Z,22.64
2022-09-20T02:18:51.818Z,22.61
2022-09-20T02:21:18.194Z,22.60
2022-09-20T02:23:44.587Z,22.60
2022-09-20T02:26:10.936Z,22.57
2022-09-20T02:28:37.306Z,22.62
2022-09-20T02:31:03.675Z,22.64
2022-09-20T02:33:30.033Z,22.58
2022-09-20T02:35:56.388Z,22.61
2022-09-20T02:38:22.763Z,22.63
2022-09-20T02:40:49.119Z,22.60
2022-09-20T02:43:15.482Z,22.59
2022-09-20T02:45:41.905Z,22.58
2022-09-20T02:48:08.324Z,22.56
2022-09-20T02:50:34.675Z,22.60
2022-09-20T02:53:01.036Z,22.60
2022-09-20T02:55:27.392Z,22.57
2022-09-20T02:57:53.746Z,22.59
2022-09-20T03:00:20.114Z,22.58
2022-09-20T03:02:46.470Z,22.54
2022-09-20T03:05:12.840Z,22.54
2022-09-20T03:07:39.207Z,22.59
2022-09-20T03:10:05.585Z,22.58
2022-09-20T03:12:31.944Z,22.59
2022-09-20T03:14:58.296Z,22.59
2022-09-20T03:17:24.657Z,22.59
2022-09-20T03:19:51.024Z,22.57
2022-09-20T03:22:17.376Z,22.58
2022-09-20T03:24:43.727Z,22.58
2022-09-20T03:27:10.092Z,22.56
2022-09-20T03:29:36.449Z,22.54
2022-09-20T03:32:02.880Z,22.56
2022-09-20T03:34:29.251Z,22.56
2022-09-20T03:36:55.605Z,22.59
2022-09-20T03:39:21.969Z,22.54
2022-09-20T03:41:48.321Z,22.56
2022-09-20T03:44:14.685Z,22.51
2022-09-20T03:46:41.054Z,22.52
2022-09-20T03:49:07.416Z,22.50
2022-09-20T03:51:34.429Z,22.52
2022-09-20T03:54:00.917Z,22.51
2022-09-20T03:56:27.271Z,22.53
2022-09-20T03:58:53.630Z,22.53
2022-09-20T04:01:20.020Z,22.49
2022-09-20T04:03:46.402Z,22.47
2022-09-20T04:06:12.760Z,22.45
2022-09-20T04:08:40.353Z,22.44
2022-09-20T04:11:06.888Z,22.49
2022-09-20T04:13:33.238Z,22.52
2022-09-20T04:15:59.602Z,22.53
2022-09-20T04:18:25.997Z,22.51
2022-09-20T04:20:52.375Z,22.49
2022-09-20T04:23:18.738Z,22.49
2022-09-20T04:25:45.088Z,22.47
2022-09-20T04:28:11.542Z,22.46
2022-09-20T04:30:37.915Z,22.48
2022-09-20T04:33:04.267Z,22.48
2022-09-20T04:35:30.628Z,22.47
2022-09-20T04:37:56.990Z,22.46
2022-09-20T04:40:23.427Z,22.45
2022-09-20T04:42:49.828Z,22.46
2022-09-20T04:45:16.193Z,22.49
2022-09-20T04:47:42.561Z,22.44
2022-09-20T04:50:08.913Z,22.41
2022-09-20T04:52:35.279Z,22.42
2022-09-20T04:55:01.626Z,22.41
2022-09-20T04:57:27.981Z,22.42
2022-09-20T04:59:54.357Z,22.41
2022-09-20T05:02:20.756Z,22.41
2022-09-20T05:04:47.121Z,22.42
2022-09-20T05:07:13.479Z,22.37
2022-09-20T05:09:39.840Z,22.40
2022-09-20T05:12:06.197Z,22.38
2022-09-20T05:14:32.555Z,22.37
2022-09-20T05:16:58.979Z,22.36
2022-09-20T05:19:25.380Z,22.36
2022-09-20T05:21:51.740Z,22.40
2022-09-20T05:24:18.096Z,22.38
2022-09-20T05:26:44.459Z,22.39
2022-09-20T05:29:10.826Z,22.39
2022-09-20T05:31:37.268Z,22.39
2022-09-20T05:34:03.650Z,22.41
2022-09-20T05:36:33.770Z,22.39
2022-09-20T05:39:03.402Z,22.40
2022-09-20T05:41:30.184Z,22.39
2022-09-20T05:43:56.537Z,22.42
2022-09-20T05:46:22.909Z,22.43
2022-09-20T05:48:49.266Z,22.41
2022-09-20T05:51:15.650Z,22.44
2022-09-20T05:53:42.004Z,22.42
2022-09-20T05:56:08.360Z,22.45
2022-09-20T05:58:34.719Z,22.41
2022-09-20T06:01:01.102Z,22.39
2022-09-20T06:03:27.486Z,22.16
2022-09-20T06:05:53.855Z,22.15
2022-09-20T06:08:20.200Z,22.21
2022-09-20T06:10:46.548Z,22.27
2022-09-20T06:13:12.911Z,22.30
2022-09-20T06:15:39.274Z,22.34
2022-09-20T06:18:05.644Z,22.38
2022-09-20T06:20:32.005Z,22.36
2022-09-20T06:22:58.375Z,22.36
2022-09-20T06:25:24.733Z,22.39
2022-09-20T06:27:51.093Z,22.39
2022-09-20T06:30:17.558Z,22.39
2022-09-20T06:32:43.916Z,22.34
2022-09-20T06:35:10.277Z,22.35
2022-09-20T06:37:36.635Z,22.33
2022-09-20T06:40:03.047Z,22.37
2022-09-20T06:42:29.429Z,22.36
2022-09-20T06:44:55.879Z,22.34
2022-09-20T06:47:22.224Z,22.32
2022-09-20T06:49:48.568Z,22.32
2022-09-20T06:52:14.928Z,22.33
2022-09-20T06:54:41.292Z,22.30
2022-09-20T06:57:07.648Z,22.33
2022-09-20T06:59:34.002Z,22.31
2022-09-20T07:02:00.452Z,22.31
2022-09-20T07:04:26.856Z,22.31
2022-09-20T07:06:53.213Z,22.31
2022-09-20T07:09:19.584Z,22.33
2022-09-20T07:11:45.942Z,22.35
2022-09-20T07:14:12.311Z,22.33
2022-09-20T07:16:38.750Z,22.32
2022-09-20T07:19:05.141Z,22.33
2022-09-20T07:21:31.513Z,22.32
2022-09-20T07:23:57.890Z,22.30
2022-09-20T07:26:24.254Z,22.32
2022-09-20T07:28:50.624Z,22.31
2022-09-20T07:31:17.033Z,22.30
2022-09-20T07:33:43.446Z,22.29
2022-09-20T07:36:09.824Z,22.28
2022-09-20T07:38:36.176Z,22.26
2022-09-20T07:41:02.549Z,22.30
2022-09-20T07:43:28.912Z,22.28
2022-09-20T07:45:55.327Z,22.28
2022-09-20T07:48:21.711Z,22.28
2022-09-20T07:50:48.077Z,22.27
2022-09-20T07:53:14.549Z,22.28
2022-09-20T07:55:40.921Z,22.29
2022-09-20T07:58:07.285Z,22.26
2022-09-20T08:00:33.666Z,22.27
2022-09-20T08:03:00.024Z,22.27
2022-09-20T08:05:26.385Z,22.30
2022-09-20T08:07:52.758Z,22.28
2022-09-20T08:10:19.116Z,22.28
2022-09-20T08:15:31.829Z,22.29
2022-09-20T08:17:58.183Z,22.29
2022-09-20T08:20:24.557Z,22.31
2022-09-20T08:23:12.597Z,22.30
2022-09-20T08:25:37.286Z,22.30
2022-09-20T08:28:03.649Z,22.31
2022-09-20T08:30:30.023Z,22.31
2022-09-20T08:32:56.396Z,22.29
2022-09-20T08:35:22.768Z,22.31
2022-09-20T08:37:49.379Z,22.32
2022-09-20T08:40:15.844Z,22.31
2022-09-20T08:42:44.693Z,22.32
2022-09-20T08:45:11.363Z,22.32
2022-09-20T08:47:37.780Z,22.32
2022-09-20T08:50:11.763Z,22.33
2022-09-20T08:52:38.692Z,22.29
2022-09-20T08:55:07.492Z,22.32
2022-09-20T08:57:34.272Z,22.35
2022-09-20T09:00:00.642Z,22.31
2022-09-20T09:02:27.042Z,22.34
2022-09-20T09:04:53.441Z,22.35
2022-09-20T09:07:19.820Z,22.32
2022-09-20T09:09:46.195Z,22.34
2022-09-20T09:12:12.571Z,22.33
2022-09-20T09:14:38.931Z,22.32
2022-09-20T09:17:05.356Z,22.32
2022-09-20T09:19:34.697Z,22.34
2022-09-20T09:22:01.085Z,22.34
2022-09-20T09:24:27.457Z,22.37
2022-09-20T09:26:53.830Z,22.37
2022-09-20T09:29:20.212Z,22.36
2022-09-20T09:31:46.638Z,22.36
2022-09-20T09:34:13.060Z,22.36
2022-09-20T09:36:39.441Z,22.34
2022-09-20T09:39:05.826Z,22.38
2022-09-20T09:41:32.202Z,22.38
2022-09-20T09:43:58.569Z,22.39
2022-09-20T09:46:25.036Z,22.41
2022-09-20T09:48:51.437Z,22.43
2022-09-20T09:51:17.822Z,22.43
2022-09-20T09:53:44.217Z,22.45
2022-09-20T09:56:14.006Z,22.44
2022-09-20T09:58:40.754Z,22.43
2022-09-20T10:01:07.158Z,22.43
2022-09-20T10:03:33.569Z,22.39
2022-09-20T10:05:59.957Z,22.40
2022-09-20T10:08:26.327Z,22.38
2022-09-20T10:10:52.702Z,22.41
2022-09-20T10:13:19.103Z,22.40
2022-09-20T10:15:45.500Z,22.45
2022-09-20T10:18:11.876Z,22.46
2022-09-20T10:20:38.254Z,22.45
2022-09-20T10:23:39.465Z,22.44
2022-09-20T10:25:50.999Z,22.43
2022-09-20T10:28:17.376Z,22.44
2022-09-20T10:30:43.804Z,22.41
2022-09-20T10:33:10.213Z,22.42
2022-09-20T10:35:36.609Z,22.40
2022-09-20T10:38:02.981Z,22.41
2022-09-20T10:40:29.483Z,22.40
2022-09-20T10:42:55.875Z,22.41
2022-09-20T10:45:53.317Z,22.40
2022-09-20T10:48:08.627Z,22.39
2022-09-20T10:50:35.001Z,22.42
2022-09-20T10:53:01.665Z,22.42
2022-09-20T10:55:28.181Z,22.39
2022-09-20T10:57:54.551Z,22.40
2022-09-20T11:00:20.911Z,22.40
2022-09-20T11:02:47.283Z,22.42
2022-09-20T11:05:13.643Z,22.43
2022-09-20T11:07:40.013Z,22.42
2022-09-20T11:10:06.533Z,22.40
2022-09-20T11:12:32.966Z,22.41
2022-09-20T11:14:59.335Z,22.39
2022-09-20T11:17:25.814Z,22.42
2022-09-20T11:19:52.183Z,22.43
2022-09-20T11:22:18.573Z,22.43
2022-09-20T11:24:44.966Z,22.43
2022-09-20T11:27:11.331Z,22.44
2022-09-20T11:29:37.705Z,22.45
2022-09-20T11:32:04.152Z,22.44
2022-09-20T11:34:30.572Z,22.47
2022-09-20T11:36:56.936Z,22.45
2022-09-20T11:39:23.317Z,22.49
2022-09-20T11:41:49.693Z,22.46
2022-09-20T11:44:16.067Z,22.44
2022-09-20T11:46:42.441Z,22.44
2022-09-20T11:49:08.813Z,22.45
2022-09-20T11:51:35.201Z,22.44
2022-09-20T11:54:01.575Z,22.44
2022-09-20T11:56:27.951Z,22.47
2022-09-20T11:58:54.339Z,22.47
2022-09-20T12:01:23.057Z,22.44
2022-09-20T12:04:04.094Z,22.45
2022-09-20T12:06:38.990Z,22.49
2022-09-20T12:09:05.361Z,22.44
2022-09-20T12:11:31.758Z,22.48
2022-09-20T12:13:58.134Z,22.49
2022-09-20T12:16:24.527Z,22.47
2022-09-20T12:18:50.932Z,22.45
2022-09-20T12:21:17.425Z,22.47
2022-09-20T12:23:43.882Z,22.45
2022-09-20T12:26:10.251Z,22.45
2022-09-20T12:28:36.631Z,22.45
2022-09-20T12:31:03.007Z,22.47
2022-09-20T12:33:29.372Z,22.43
2022-09-20T12:35:55.764Z,22.44
2022-09-20T12:38:22.284Z,22.44
2022-09-20T12:40:48.684Z,22.46
2022-09-20T12:43:15.053Z,22.47
2022-09-20T12:45:41.478Z,22.47
2022-09-20T12:48:07.857Z,22.48
2022-09-20T12:50:34.263Z,22.48
2022-09-20T12:53:00.693Z,22.48
2022-09-20T12:55:27.093Z,22.51
2022-09-20T12:57:53.463Z,22.50
2022-09-20T13:00:19.833Z,22.50
2022-09-20T13:02:46.199Z,22.51
2022-09-20T13:05:12.579Z,22.50
2022-09-20T13:07:43.361Z,22.53
2022-09-20T13:10:10.288Z,22.51
2022-09-20T13:12:36.673Z,22.52
2022-09-20T13:15:03.069Z,22.51
2022-09-20T13:17:29.496Z,22.54
2022-09-20T13:19:55.882Z,22.54
2022-09-20T13:22:22.256Z,22.53
2022-09-20T13:24:48.643Z,22.52
2022-09-20T13:27:19.437Z,22.51
2022-09-20T13:29:46.041Z,22.51
2022-09-20T13:32:12.414Z,22.54
2022-09-20T13:34:38.793Z,22.52
2022-09-20T13:37:05.179Z,22.53
2022-09-20T13:39:31.558Z,22.54
2022-09-20T13:41:57.923Z,22.52
2022-09-20T13:44:24.309Z,22.54
2022-09-20T13:46:50.681Z,22.55
2022-09-20T13:49:17.043Z,22.54
2022-09-20T13:51:43.426Z,22.53
2022-09-20T13:54:09.806Z,22.53
2022-09-20T13:56:36.185Z,22.54
2022-09-20T13:59:02.555Z,22.54
2022-09-20T14:01:29.069Z,22.54
2022-09-20T14:03:55.509Z,22.55
2022-09-20T14:06:21.881Z,22.55
2022-09-20T14:08:48.265Z,22.54
2022-09-20T14:11:14.631Z,22.55
2022-09-20T14:13:41.010Z,22.56
2022-09-20T14:16:07.384Z,22.56
2022-09-20T14:18:33.743Z,22.54
2022-09-20T14:21:00.111Z,22.55
2022-09-20T14:23:26.573Z,22.57
2022-09-20T14:25:52.943Z,22.56
2022-09-20T14:28:19.316Z,22.56
2022-09-20T14:30:45.698Z,22.57
2022-09-20T14:33:12.084Z,22.54
2022-09-20T14:35:38.457Z,22.59
2022-09-20T14:38:04.850Z,22.57
2022-09-20T14:40:31.250Z,22.59
2022-09-20T14:42:57.679Z,22.57
2022-09-20T14:45:24.121Z,22.58
2022-09-20T14:47:50.586Z,22.59
2022-09-20T14:50:19.692Z,22.59
2022-09-20T14:52:46.092Z,22.58
2022-09-20T14:55:12.472Z,22.58
2022-09-20T14:57:38.841Z,22.59
2022-09-20T15:00:05.222Z,22.56
2022-09-20T15:02:31.629Z,22.56
2022-09-20T15:04:58.019Z,22.59
2022-09-20T15:07:24.386Z,22.59
2022-09-20T15:09:50.766Z,22.59
2022-09-20T15:12:17.150Z,22.60
2022-09-20T15:14:43.511Z,22.58
2022-09-20T15:17:09.985Z,22.57
2022-09-20T15:19:36.355Z,22.58
2022-09-20T15:22:02.735Z,22.58
2022-09-20T15:24:29.114Z,22.58
2022-09-20T15:26:55.580Z,22.62
2022-09-20T15:29:21.957Z,22.62
2022-09-20T15:31:48.389Z,22.59
2022-09-20T15:34:14.805Z,22.55
2022-09-20T15:36:41.193Z,22.56
2022-09-20T15:39:07.567Z,22.58
2022-09-20T15:41:33.953Z,22.59
2022-09-20T15:44:00.337Z,22.58
2022-09-20T15:46:26.737Z,22.62
2022-09-20T15:48:53.103Z,22.60
2022-09-20T15:51:19.468Z,22.58
2022-09-20T15:53:45.849Z,22.59
2022-09-20T15:56:12.232Z,22.62
2022-09-20T15:58:38.601Z,22.59
2022-09-20T16:01:05.061Z,22.59
2022-09-20T16:03:31.466Z,22.59
2022-09-20T16:06:01.979Z,22.60
2022-09-20T16:08:30.420Z,22.62
2022-09-20T16:10:56.788Z,22.59
2022-09-20T16:13:23.161Z,22.60
2022-09-20T16:15:49.563Z,22.62
2022-09-20T16:18:15.945Z,22.59
2022-09-20T16:20:42.339Z,22.62
2022-09-20T16:23:08.704Z,22.56
2022-09-20T16:25:35.086Z,22.62
2022-09-20T16:28:01.465Z,22.59
2022-09-20T16:30:27.841Z,22.58
2022-09-20T16:32:54.208Z,22.59
2022-09-20T16:35:20.596Z,22.60
2022-09-20T16:37:46.974Z,22.61
2022-09-20T16:40:13.379Z,22.59
2022-09-20T16:42:39.781Z,22.62
2022-09-20T16:45:06.157Z,22.58
2022-09-20T16:47:32.548Z,22.59
2022-09-20T16:49:58.923Z,22.62
2022-09-20T16:52:25.297Z,22.58
2022-09-20T16:54:51.664Z,22.58
2022-09-20T16:57:18.053Z,22.57
2022-09-20T16:59:44.434Z,22.58
2022-09-20T17:02:10.800Z,22.56
2022-09-20T17:04:37.189Z,22.56
2022-09-20T17:07:03.569Z,22.57
2022-09-20T17:09:29.938Z,22.55
2022-09-20T17:11:56.321Z,22.55
2022-09-20T17:14:22.687Z,22.57
2022-09-20T17:16:49.076Z,22.58
2022-09-20T17:19:15.463Z,22.58
2022-09-20T17:21:41.823Z,22.56
2022-09-20T17:24:08.209Z,22.56
2022-09-20T17:26:34.606Z,22.55
2022-09-20T17:29:00.980Z,22.55
2022-09-20T17:31:27.410Z,22.53
2022-09-20T17:33:53.854Z,22.52
2022-09-20T17:36:20.232Z,22.53
2022-09-20T17:38:46.613Z,22.54
2022-09-20T17:41:12.994Z,22.54
2022-09-20T17:43:39.433Z,22.55
2022-09-20T17:46:05.819Z,22.56
2022-09-20T17:48:32.195Z,22.56
2022-09-20T17:50:58.574Z,22.58
2022-09-20T17:53:24.952Z,22.59
2022-09-20T17:55:51.311Z,22.58
2022-09-20T17:58:17.674Z,22.60
2022-09-20T18:00:44.107Z,22.54
2022-09-20T18:03:10.510Z,22.56
2022-09-20T18:05:36.895Z,22.59
2022-09-20T18:08:03.273Z,22.60
2022-09-20T18:10:29.652Z,22.62
2022-09-20T18:12:56.038Z,22.59
2022-09-20T18:15:22.404Z,22.59
2022-09-20T18:17:53.826Z,22.57
2022-09-20T18:20:20.848Z,22.57
2022-09-20T18:22:47.221Z,22.61
2022-09-20T18:25:13.618Z,22.59
2022-09-20T18:27:39.980Z,22.57
2022-09-20T18:30:06.349Z,22.56
2022-09-20T18:32:32.733Z,22.60
2022-09-20T18:34:59.099Z,22.61
2022-09-20T18:37:25.472Z,22.60
2022-09-20T18:39:51.852Z,22.66
2022-09-20T18:42:18.216Z,22.66
2022-09-20T18:44:44.580Z,22.67
2022-09-20T18:47:10.955Z,22.70
2022-09-20T18:49:37.323Z,22.71
2022-09-20T18:52:03.708Z,22.78
2022-09-20T18:54:30.090Z,22.81
2022-09-20T18:56:56.462Z,22.83
2022-09-20T18:59:22.853Z,22.89
2022-09-20T19:01:49.298Z,22.92
2022-09-20T19:04:15.796Z,22.92
2022-09-20T19:06:42.176Z,23.01
2022-09-20T19:09:08.576Z,23.02
2022-09-20T19:11:34.944Z,23.06
2022-09-20T19:14:01.319Z,23.07
2022-09-20T19:16:27.761Z,23.06
2022-09-20T19:18:54.206Z,23.05
2022-09-20T19:21:20.633Z,23.06
2022-09-20T19:23:47.010Z,23.08
2022-09-20T19:26:18.371Z,23.07
2022-09-20T19:28:45.427Z,23.07
2022-09-20T19:31:11.804Z,23.08
2022-09-20T19:33:38.205Z,23.07
2022-09-20T19:36:04.584Z,23.09
2022-09-20T19:38:30.950Z,23.06
2022-09-20T19:40:57.315Z,23.02
2022-09-20T19:43:23.712Z,22.97
2022-09-20T19:45:50.070Z,22.95
2022-09-20T19:48:16.450Z,22.88
2022-09-20T19:50:42.819Z,22.85
2022-09-20T19:53:09.199Z,22.79
2022-09-20T19:55:35.621Z,22.77
2022-09-20T19:58:02.009Z,22.77
2022-09-20T20:00:28.398Z,22.73
2022-09-20T20:02:54.777Z,22.75
2022-09-20T20:05:21.281Z,22.73
2022-09-20T20:07:47.657Z,22.71
2022-09-20T20:10:14.038Z,22.72
2022-09-20T20:12:40.421Z,22.70
2022-09-20T20:15:06.798Z,22.66
2022-09-20T20:17:33.175Z,22.70
2022-09-20T20:19:59.555Z,22.67
2022-09-20T20:22:25.946Z,22.68
2022-09-20T20:24:52.329Z,22.67
2022-09-20T20:27:18.725Z,22.66
2022-09-20T20:29:45.116Z,22.65
2022-09-20T20:32:11.479Z,22.67
2022-09-20T20:34:37.852Z,22.65
2022-09-20T20:37:04.258Z,22.66
2022-09-20T20:39:30.641Z,22.68
2022-09-20T20:42:01.341Z,22.68
2022-09-20T20:44:28.418Z,22.64
2022-09-20T20:46:54.791Z,22.66
2022-09-20T20:49:21.160Z,22.64
2022-09-20T20:51:47.533Z,22.65
2022-09-20T20:54:13.906Z,22.65
2022-09-20T20:56:40.275Z,22.66
2022-09-20T20:59:06.745Z,22.65
2022-09-20T21:01:33.176Z,22.61
2022-09-20T21:03:59.568Z,22.64
2022-09-20T21:06:25.943Z,22.95
2022-09-20T21:08:52.303Z,23.06
2022-09-20T21:11:18.692Z,23.08
2022-09-20T21:13:45.073Z,23.14
2022-09-20T21:16:11.523Z,23.26
2022-09-20T21:18:37.990Z,23.21
2022-09-20T21:21:04.361Z,23.24
2022-09-20T21:23:30.741Z,23.23
2022-09-20T21:25:57.096Z,23.23
2022-09-20T21:28:23.465Z,23.19
2022-09-20T21:30:49.902Z,23.19
2022-09-20T21:33:16.290Z,23.15
2022-09-20T21:35:42.665Z,23.20
2022-09-20T21:38:09.023Z,23.15
2022-09-20T21:40:35.500Z,23.15
2022-09-20T21:43:01.889Z,23.12
2022-09-20T21:45:28.243Z,23.14
2022-09-20T21:47:54.607Z,23.12
2022-09-20T21:50:20.974Z,23.19
2022-09-20T21:52:47.336Z,23.16
2022-09-20T21:55:13.705Z,23.12
2022-09-20T21:57:40.069Z,23.12
2022-09-20T22:00:06.530Z,23.06
2022-09-20T22:02:32.917Z,23.03
2022-09-20T22:04:59.304Z,22.96
2022-09-20T22:07:25.748Z,22.87
2022-09-20T22:09:52.105Z,22.85
2022-09-20T22:12:18.473Z,22.84
2022-09-20T22:14:44.846Z,22.75
2022-09-20T22:17:11.210Z,22.75
2022-09-20T22:19:37.577Z,22.72
2022-09-20T22:22:03.945Z,22.71
2022-09-20T22:24:30.327Z,22.69
2022-09-20T22:26:56.702Z,22.66
2022-09-20T22:29:23.068Z,22.65
2022-09-20T22:31:49.441Z,22.65
2022-09-20T22:34:15.807Z,22.63
2022-09-20T22:36:42.166Z,22.63
2022-09-20T22:39:08.641Z,22.59
2022-09-20T22:41:35.037Z,22.59
2022-09-20T22:44:01.496Z,22.58
2022-09-20T22:46:27.859Z,22.56
2022-09-20T22:48:54.322Z,22.56
2022-09-20T22:51:20.726Z,22.54
2022-09-20T22:53:47.089Z,22.56
2022-09-20T22:56:13.458Z,22.54
2022-09-20T22:58:39.831Z,22.51
2022-09-20T23:01:06.280Z,22.51
2022-09-20T23:03:32.698Z,22.52
2022-09-20T23:05:59.111Z,22.53
2022-09-20T23:08:25.479Z,22.52
2022-09-20T23:10:51.848Z,22.53
2022-09-20T23:13:18.220Z,22.51
2022-09-20T23:15:44.581Z,22.47
2022-09-20T23:18:10.944Z,22.45
2022-09-20T23:20:37.347Z,22.43
2022-09-20T23:23:03.722Z,22.47
2022-09-20T23:25:30.076Z,22.47
2022-09-20T23:27:56.445Z,22.45
2022-09-20T23:30:22.813Z,22.43
2022-09-20T23:32:49.175Z,22.39
2022-09-20T23:35:15.542Z,22.42
2022-09-20T23:37:41.912Z,22.44
2022-09-20T23:40:08.308Z,22.44
2022-09-20T23:42:34.677Z,22.39
2022-09-20T23:45:01.114Z,22.38
2022-09-20T23:47:27.489Z,22.40
2022-09-20T23:49:53.843Z,22.41
2022-09-20T23:52:20.229Z,22.41
2022-09-20T23:54:46.589Z,22.40
2022-09-20T23:57:12.966Z,22.39
2022-09-20T23:59:39.326Z,22.40
